Time;durP1;ratioP1;P1;durP2;ratioP2;P2;SDS_P1;SDS_P2;PMS_P1;PMS_P2;Temp;Humidity;BMP_temperature;BMP_pressure;BME280_temperature;BME280_humidity;BME280_pressure;Samples;Min_cycle;Max_cycle;Signal;HPM_P1;HPM_P2
2023/02/16 08:35:14;;;;;;;20.77;9.82;;;;;;;14.02;44.48;97563.00;2084597;28;20577;-62
2023/02/16 08:36:23;;;;;;;19.90;9.00;;;;;;;14.89;40.99;97574.84;2076914;28;20201;-62
2023/02/16 08:37:25;;;;;;;16.98;8.75;;;;;;;14.31;42.25;97567.84;2074925;28;20224;-62
2023/02/16 08:38:26;;;;;;;13.35;8.18;;;;;;;14.95;42.29;97564.03;2074492;28;20193;-62
2023/02/16 08:39:30;;;;;;;16.77;9.60;;;;;;;15.19;41.10;97572.53;2069231;28;20230;-62
2023/02/16 08:40:31;;;;;;;22.58;8.15;;;;;;;14.39;41.77;97573.63;2072074;28;20201;-62
2023/02/16 08:41:35;;;;;;;16.15;7.97;;;;;;;14.24;42.28;97569.06;2071253;28;20564;-62
2023/02/16 08:42:37;;;;;;;16.17;9.32;;;;;;;13.65;42.95;97577.72;2070137;28;20208;-62
2023/02/16 08:43:38;;;;;;;15.35;9.10;;;;;;;13.83;43.56;97565.56;2071788;28;20225;-62
2023/02/16 08:44:41;;;;;;;17.02;8.65;;;;;;;14.76;41.46;97566.69;2070685;28;20201;-62
2023/02/16 08:45:46;;;;;;;17.08;8.73;;;;;;;14.69;41.33;97576.66;2070777;28;20288;-62
2023/02/16 08:46:49;;;;;;;15.98;9.80;;;;;;;15.02;40.91;97575.16;2069160;28;20206;-62
2023/02/16 08:47:52;;;;;;;16.27;10.10;;;;;;;14.27;42.14;97567.16;2071659;28;20234;-62
2023/02/16 08:48:59;;;;;;;18.67;9.55;;;;;;;13.67;42.24;97573.22;2066759;28;20582;-62
2023/02/16 08:50:01;;;;;;;12.15;8.57;;;;;;;14.09;41.56;97562.72;2067472;28;20198;-62
2023/02/16 08:51:02;;;;;;;17.75;8.30;;;;;;;14.26;41.97;97569.84;2075727;28;20197;-62
2023/02/16 08:52:04;;;;;;;14.85;8.77;;;;;;;14.51;41.90;97574.84;2074002;28;20213;-64
2023/02/16 08:53:06;;;;;;;21.60;9.93;;;;;;;14.99;41.33;97573.50;2065728;28;20209;-64
2023/02/16 08:54:08;;;;;;;15.82;9.07;;;;;;;14.64;42.01;97567.22;2070079;28;20592;-64
2023/02/16 08:55:09;;;;;;;15.75;8.77;;;;;;;14.24;41.75;97569.91;2069357;28;20264;-64
2023/02/16 08:56:11;;;;;;;16.98;9.75;;;;;;;15.16;41.24;97572.69;2070118;28;20284;-64
2023/02/16 08:57:13;;;;;;;25.48;9.63;;;;;;;14.41;41.84;97571.78;2071937;28;20204;-64
2023/02/16 08:58:14;;;;;;;19.75;9.25;;;;;;;15.20;41.34;97573.41;2071991;28;20209;-63
2023/02/16 08:59:18;;;;;;;14.02;9.25;;;;;;;15.23;41.13;97569.78;2070245;28;20202;-64
2023/02/16 09:00:36;;;;;;;15.32;9.73;;;;;;;14.99;41.54;97570.03;2069303;28;20787;-64
2023/02/16 09:01:39;;;;;;;23.80;8.98;;;;;;;14.58;41.47;97570.16;2069266;28;20198;-64
2023/02/16 09:02:40;;;;;;;20.52;9.02;;;;;;;15.35;41.02;97571.81;2068385;28;20197;-64
2023/02/16 09:03:44;;;;;;;15.02;9.45;;;;;;;15.26;40.23;97566.97;2066680;28;20717;-64
2023/02/16 09:04:46;;;;;;;13.85;9.50;;;;;;;17.11;38.56;97573.13;2067383;28;20293;-64
2023/02/16 09:05:51;;;;;;;20.63;9.90;;;;;;;16.29;38.42;97574.06;2069067;28;20198;-64
2023/02/16 09:06:55;;;;;;;16.38;10.35;;;;;;;15.68;39.40;97574.53;2067467;28;20201;-64
2023/02/16 09:07:56;;;;;;;18.95;10.18;;;;;;;15.62;39.68;97574.81;2069203;28;20366;-64
2023/02/16 09:08:58;;;;;;;16.13;9.55;;;;;;;15.63;39.64;97578.31;2067619;28;20230;-64
2023/02/16 09:10:01;;;;;;;16.75;10.85;;;;;;;16.51;38.90;97581.69;2071423;28;20236;-64
2023/02/16 09:11:14;;;;;;;18.73;9.95;;;;;;;16.68;38.44;97580.78;2072619;28;20201;-64
2023/02/16 09:12:16;;;;;;;18.25;9.52;;;;;;;17.24;37.73;97583.00;2071145;28;20303;-63
2023/02/16 09:13:17;;;;;;;26.08;10.00;;;;;;;16.24;38.75;97584.88;2065794;28;20269;-64
2023/02/16 09:14:21;;;;;;;15.20;9.35;;;;;;;16.48;38.56;97573.94;2071531;28;20198;-64
2023/02/16 09:15:23;;;;;;;13.20;9.40;;;;;;;16.90;38.06;97583.09;2070008;28;20209;-64
2023/02/16 09:16:26;;;;;;;15.30;10.02;;;;;;;17.60;36.82;97579.22;2070048;28;20685;-63
2023/02/16 09:17:28;;;;;;;16.05;9.25;;;;;;;16.52;38.52;97577.25;2073296;28;20852;-64
2023/02/16 09:18:31;;;;;;;14.68;9.63;;;;;;;16.60;37.85;97583.00;2070839;28;20198;-64
2023/02/16 09:19:33;;;;;;;16.30;10.18;;;;;;;16.27;38.42;97579.44;2073865;28;20194;-64
2023/02/16 09:20:40;;;;;;;17.77;10.50;;;;;;;16.41;38.77;97585.75;2071784;28;20222;-64
2023/02/16 09:21:42;;;;;;;13.27;8.52;;;;;;;16.85;37.97;97579.88;2070954;28;20964;-64
2023/02/16 09:22:45;;;;;;;19.00;10.30;;;;;;;16.46;38.32;97589.00;2071413;28;20194;-64
2023/02/16 09:23:49;;;;;;;16.92;10.18;;;;;;;17.80;37.22;97570.09;2071253;28;21035;-63
2023/02/16 09:24:50;;;;;;;14.50;7.95;;;;;;;18.55;35.75;97582.34;2069889;28;20202;-63
2023/02/16 09:25:52;;;;;;;15.70;8.40;;;;;;;17.63;36.63;97577.22;2071282;28;20206;-64
2023/02/16 09:26:53;;;;;;;16.70;8.93;;;;;;;18.76;35.35;97578.34;2071245;28;20621;-63
2023/02/16 09:27:54;;;;;;;14.55;9.77;;;;;;;17.95;35.76;97576.28;2069599;28;20202;-64
2023/02/16 09:28:56;;;;;;;12.48;7.68;;;;;;;18.66;35.28;97574.59;2070421;28;20767;-63
2023/02/16 09:29:59;;;;;;;15.40;8.73;;;;;;;18.76;34.76;97573.06;2070590;28;20201;-63
2023/02/16 09:31:08;;;;;;;14.13;8.35;;;;;;;17.45;36.18;97576.50;2070871;28;20202;-61
2023/02/16 09:32:10;;;;;;;18.92;9.68;;;;;;;16.87;37.83;97583.25;2068169;28;20194;-61
2023/02/16 09:33:13;;;;;;;16.00;8.52;;;;;;;17.30;37.08;97582.66;2066224;28;20548;-61
2023/02/16 09:34:18;;;;;;;14.75;9.45;;;;;;;16.18;38.58;97585.19;2070192;28;20194;-61
2023/02/16 09:35:20;;;;;;;14.80;9.18;;;;;;;17.10;37.89;97573.22;2071183;28;20209;-62
2023/02/16 09:36:22;;;;;;;16.58;9.30;;;;;;;18.89;34.92;97588.16;2070656;28;20206;-61
2023/02/16 09:37:23;;;;;;;18.20;10.30;;;;;;;18.49;35.29;97577.47;2070026;28;20671;-61
2023/02/16 09:38:26;;;;;;;15.57;9.40;;;;;;;19.51;33.96;97579.78;2068829;28;20202;-61
2023/02/16 09:39:27;;;;;;;12.90;8.30;;;;;;;19.26;33.94;97580.53;2068205;28;20677;-61
2023/02/16 09:40:29;;;;;;;16.92;9.23;;;;;;;18.05;35.38;97579.22;2069722;28;20225;-61
2023/02/16 09:41:37;;;;;;;14.93;8.18;;;;;;;17.54;36.80;97579.56;2071456;28;20664;-61
2023/02/16 09:43:00;;;;;;;17.35;9.25;;;;;;;17.52;36.49;97574.38;2070601;28;20253;-61
2023/02/16 09:44:20;;;;;;;14.98;9.07;;;;;;;17.89;36.13;97577.47;2070469;28;20730;-61
2023/02/16 09:45:25;;;;;;;13.50;8.20;;;;;;;17.77;36.38;97572.91;2071470;28;20824;-61
2023/02/16 09:46:29;;;;;;;16.90;8.68;;;;;;;17.72;36.77;97561.78;2064229;28;20229;-61
2023/02/16 09:47:33;;;;;;;14.32;9.20;;;;;;;18.65;35.42;97570.28;2063108;28;20229;-61
2023/02/16 09:48:41;;;;;;;14.50;9.18;;;;;;;19.09;35.09;97568.41;2067065;28;20225;-61
2023/02/16 09:49:44;;;;;;;16.00;7.90;;;;;;;19.04;34.34;97571.34;2071860;28;20532;-61
2023/02/16 09:50:48;;;;;;;11.82;8.20;;;;;;;18.98;34.28;97577.06;2066282;28;20591;-61
2023/02/16 09:52:04;;;;;;;13.73;7.95;;;;;;;19.19;34.09;97571.31;2064267;28;20206;-61
2023/02/16 09:53:17;;;;;;;17.80;8.00;;;;;;;18.38;35.41;97570.19;2061950;28;20210;-61
2023/02/16 09:54:31;;;;;;;13.05;8.13;;;;;;;18.47;35.04;97560.84;2066405;28;20222;-61
2023/02/16 09:55:46;;;;;;;22.25;8.77;;;;;;;18.76;35.40;97561.66;2065411;28;20210;-61
2023/02/16 09:57:00;;;;;;;12.93;8.40;;;;;;;18.36;35.43;97564.13;2063454;28;20207;-61
2023/02/16 09:58:11;;;;;;;14.73;8.95;;;;;;;18.82;34.83;97561.25;2062533;28;20423;-61
2023/02/16 09:59:31;;;;;;;14.25;8.80;;;;;;;18.93;34.90;97566.75;2062340;28;20262;-61
2023/02/16 10:00:33;;;;;;;17.17;9.48;;;;;;;18.76;34.96;97566.94;2066017;28;20238;-61
2023/02/16 10:01:51;;;;;;;16.40;9.40;;;;;;;19.20;35.04;97567.72;2067585;28;20256;-61
2023/02/16 10:03:22;;;;;;;18.73;9.93;;;;;;;19.02;35.08;97569.75;2063328;28;20211;-61
2023/02/16 10:05:01;;;;;;;20.33;7.75;;;;;;;19.42;34.67;97575.94;2064572;28;20257;-61
2023/02/16 10:06:12;;;;;;;11.38;7.03;;;;;;;20.02;33.91;97573.78;2063684;28;20209;-61
2023/02/16 10:07:48;;;;;;;12.43;7.40;;;;;;;20.19;33.34;97577.91;2065705;28;20556;-61
2023/02/16 10:08:52;;;;;;;11.90;7.65;;;;;;;19.33;33.92;97563.31;2051730;28;20230;-61
2023/02/16 10:09:56;;;;;;;12.40;8.00;;;;;;;19.65;33.75;97567.41;2053498;28;20214;-61
2023/02/16 10:11:06;;;;;;;12.95;6.95;;;;;;;20.27;33.11;97560.63;2063079;28;20207;-61
2023/02/16 10:12:12;;;;;;;14.02;7.70;;;;;;;19.89;33.42;97562.28;2062401;28;20229;-61
2023/02/16 10:13:29;;;;;;;15.00;7.50;;;;;;;20.72;32.51;97566.28;2060967;28;20209;-60
2023/02/16 10:14:48;;;;;;;13.05;8.13;;;;;;;19.99;33.07;97560.72;2064023;28;20237;-61
2023/02/16 10:15:52;;;;;;;23.42;7.38;;;;;;;19.11;35.13;97563.88;2062526;28;20217;-61
2023/02/16 10:17:05;;;;;;;10.77;7.35;;;;;;;19.38;33.93;97565.66;2065642;28;20221;-61
2023/02/16 10:18:16;;;;;;;12.85;7.95;;;;;;;19.29;34.03;97572.41;2065779;28;20195;-61
2023/02/16 10:19:44;;;;;;;13.55;8.10;;;;;;;19.95;33.64;97561.88;2065264;28;20592;-61
2023/02/16 10:20:51;;;;;;;14.85;7.50;;;;;;;21.07;32.19;97573.53;2065618;28;20213;-62
2023/02/16 10:21:57;;;;;;;15.02;9.15;;;;;;;21.43;31.31;97570.94;2067857;28;20193;-62
2023/02/16 10:23:29;;;;;;;10.75;6.80;;;;;;;21.15;32.07;97565.00;2062785;28;20669;-61
2023/02/16 10:24:41;;;;;;;12.00;7.50;;;;;;;20.85;32.00;97566.28;2063930;28;20830;-61
2023/02/16 10:25:56;;;;;;;11.48;7.78;;;;;;;21.12;31.94;97562.59;2063111;28;20640;-61
2023/02/16 10:27:13;;;;;;;11.93;6.93;;;;;;;20.61;32.15;97564.38;2065432;28;20194;-61
2023/02/16 10:28:19;;;;;;;12.60;6.63;;;;;;;20.90;31.67;97571.25;2062329;28;20233;-61
2023/02/16 10:29:24;;;;;;;10.05;6.05;;;;;;;21.13;31.56;97569.59;2062600;28;20332;-61
2023/02/16 10:30:29;;;;;;;10.73;7.20;;;;;;;21.03;32.09;97566.75;2063653;28;20286;-61
2023/02/16 10:31:42;;;;;;;17.67;6.97;;;;;;;20.32;32.17;97571.75;2061897;28;20202;-61
2023/02/16 10:32:50;;;;;;;14.13;6.80;;;;;;;20.69;32.09;97554.06;2065181;28;20206;-61
2023/02/16 10:33:57;;;;;;;13.02;6.80;;;;;;;20.87;31.86;97567.88;2065760;28;20585;-62
2023/02/16 10:35:21;;;;;;;19.20;7.63;;;;;;;20.67;32.10;97574.56;2061802;28;20243;-63
2023/02/16 10:36:34;;;;;;;14.85;7.30;;;;;;;20.65;31.80;97565.88;2065175;28;20562;-63
2023/02/16 10:37:58;;;;;;;11.88;6.50;;;;;;;21.24;31.21;97561.66;2066475;28;20229;-64
2023/02/16 10:39:31;;;;;;;11.13;6.22;;;;;;;21.54;31.46;97566.50;2063897;28;20225;-63
2023/02/16 10:40:48;;;;;;;10.90;6.60;;;;;;;21.32;31.08;97561.97;2064408;28;20229;-64
2023/02/16 10:42:00;;;;;;;10.00;6.40;;;;;;;21.57;31.05;97567.28;2063128;28;20202;-64
2023/02/16 10:43:20;;;;;;;13.35;6.97;;;;;;;21.84;31.37;97561.69;2063043;28;20201;-63
2023/02/16 10:44:27;;;;;;;9.35;6.35;;;;;;;21.63;31.07;97561.50;2064124;28;20214;-64
2023/02/16 10:45:38;;;;;;;10.20;6.60;;;;;;;21.82;30.82;97558.31;2063034;28;20202;-64
2023/02/16 10:46:46;;;;;;;14.93;7.20;;;;;;;21.64;31.06;97561.38;2064611;28;20732;-64
2023/02/16 10:47:48;;;;;;;9.30;6.47;;;;;;;21.14;30.98;97558.84;2061592;28;20202;-63
2023/02/16 10:48:53;;;;;;;11.77;6.25;;;;;;;21.98;31.17;97561.47;2063513;28;20250;-64
2023/02/16 10:49:55;;;;;;;10.40;6.40;;;;;;;22.03;30.58;97558.47;2065645;28;20842;-63
2023/02/16 10:51:05;;;;;;;10.43;6.25;;;;;;;21.91;30.81;97554.09;2063797;28;20198;-63
2023/02/16 10:52:08;;;;;;;9.90;6.72;;;;;;;21.24;31.67;97556.34;2065269;28;20252;-63
2023/02/16 10:53:20;;;;;;;14.80;7.68;;;;;;;20.99;31.55;97558.16;2064186;28;20226;-63
2023/02/16 10:54:26;;;;;;;10.95;6.10;;;;;;;21.39;31.73;97553.53;2062635;28;20222;-63
2023/02/16 10:55:28;;;;;;;14.13;6.60;;;;;;;21.61;31.24;97560.75;2063195;28;21068;-63
2023/02/16 10:56:56;;;;;;;14.07;6.80;;;;;;;20.85;32.06;97561.81;2064363;28;20229;-63
2023/02/16 10:58:00;;;;;;;11.27;6.75;;;;;;;20.83;32.40;97561.06;2060373;28;20199;-63
2023/02/16 10:59:06;;;;;;;10.57;5.93;;;;;;;21.43;31.80;97552.34;2062993;28;20219;-63
2023/02/16 11:00:17;;;;;;;13.68;6.80;;;;;;;22.13;31.29;97553.28;2065810;28;20198;-63
2023/02/16 11:01:36;;;;;;;15.35;6.95;;;;;;;22.73;30.12;97553.94;2064665;28;20232;-60
2023/02/16 11:02:46;;;;;;;11.30;5.63;;;;;;;21.66;30.83;97558.59;2064160;28;20194;-61
2023/02/16 11:03:49;;;;;;;10.65;6.25;;;;;;;21.89;31.13;97553.34;2062747;28;20281;-60
2023/02/16 11:04:53;;;;;;;9.07;6.28;;;;;;;22.47;30.50;97550.69;2063634;28;20195;-60
2023/02/16 11:05:54;;;;;;;10.68;6.13;;;;;;;21.99;30.82;97546.38;2065159;28;20820;-60
2023/02/16 11:07:11;;;;;;;9.98;6.95;;;;;;;21.93;31.00;97545.03;2068449;28;20193;-61
2023/02/16 11:08:13;;;;;;;9.68;5.97;;;;;;;22.07;30.67;97548.44;2063443;28;20202;-60
2023/02/16 11:09:14;;;;;;;21.90;6.63;;;;;;;21.38;31.30;97544.69;2065038;28;20866;-60
2023/02/16 11:10:21;;;;;;;10.27;6.68;;;;;;;22.20;30.43;97559.81;2065152;28;20612;-60
2023/02/16 11:11:28;;;;;;;12.15;6.95;;;;;;;21.82;30.31;97545.84;2062519;28;20551;-60
2023/02/16 11:12:35;;;;;;;10.85;6.80;;;;;;;21.96;31.12;97549.28;2061622;28;20202;-61
2023/02/16 11:13:37;;;;;;;12.57;7.43;;;;;;;21.98;30.57;97545.53;2060346;28;20230;-60
2023/02/16 11:14:38;;;;;;;12.18;6.00;;;;;;;22.76;30.10;97556.34;2063314;28;20237;-60
2023/02/16 11:15:40;;;;;;;14.73;6.50;;;;;;;21.37;30.64;97543.03;2064265;28;20198;-60
2023/02/16 11:16:42;;;;;;;10.75;6.75;;;;;;;21.69;31.03;97545.09;2064697;28;20195;-60
2023/02/16 11:17:52;;;;;;;10.88;5.65;;;;;;;22.23;30.31;97553.41;2067178;28;20198;-61
2023/02/16 11:19:04;;;;;;;10.15;6.60;;;;;;;22.45;29.71;97534.84;2064313;28;20217;-60
2023/02/16 11:20:08;;;;;;;11.95;6.57;;;;;;;22.61;30.05;97542.47;2062888;28;20198;-60
2023/02/16 11:21:11;;;;;;;11.18;6.45;;;;;;;22.39;29.79;97542.47;2063953;28;20264;-60
2023/02/16 11:22:35;;;;;;;11.98;6.05;;;;;;;22.48;29.81;97547.06;2064850;28;20234;-60
2023/02/16 11:23:39;;;;;;;9.05;5.80;;;;;;;22.49;30.45;97540.75;2064628;28;20697;-60
2023/02/16 11:24:41;;;;;;;9.95;5.85;;;;;;;22.14;30.03;97544.34;2060571;28;20653;-60
2023/02/16 11:25:58;;;;;;;9.32;5.40;;;;;;;22.28;30.63;97537.94;2064279;28;20210;-60
2023/02/16 11:27:16;;;;;;;8.40;5.50;;;;;;;22.68;29.81;97529.50;2065341;28;20195;-61
2023/02/16 11:28:39;;;;;;;8.10;5.15;;;;;;;21.94;30.49;97541.41;2065448;28;20201;-60
2023/02/16 11:29:41;;;;;;;10.77;5.72;;;;;;;22.34;30.12;97532.97;2065932;28;20200;-60
2023/02/16 11:30:43;;;;;;;7.68;4.40;;;;;;;22.11;30.26;97539.28;2066674;28;20198;-60
2023/02/16 11:31:45;;;;;;;8.02;4.38;;;;;;;21.94;30.53;97528.13;2063888;28;20198;-60
2023/02/16 11:32:49;;;;;;;13.43;5.60;;;;;;;21.63;30.20;97525.13;2062343;28;20582;-60
2023/02/16 11:34:05;;;;;;;8.60;5.20;;;;;;;22.51;30.35;97525.50;2064984;28;20222;-60
2023/02/16 11:35:08;;;;;;;8.70;5.75;;;;;;;22.91;29.27;97521.47;2057140;28;20227;-60
2023/02/16 11:36:26;;;;;;;11.10;6.05;;;;;;;22.24;30.28;97518.72;2064826;28;20712;-61
2023/02/16 11:37:31;;;;;;;8.82;4.80;;;;;;;22.21;31.08;97507.47;2064928;28;20241;-60
2023/02/16 11:38:35;;;;;;;11.20;5.25;;;;;;;23.02;29.39;97523.25;2065497;28;20226;-60
2023/02/16 11:39:40;;;;;;;11.40;5.93;;;;;;;23.23;29.56;97520.69;2063425;28;20218;-60
2023/02/16 11:40:51;;;;;;;10.50;6.22;;;;;;;23.20;29.53;97526.25;2062594;28;20285;-60
2023/02/16 11:42:17;;;;;;;9.65;5.85;;;;;;;22.47;30.40;97516.94;2065469;28;20198;-60
2023/02/16 11:43:19;;;;;;;16.15;5.65;;;;;;;22.49;30.57;97517.66;2065362;28;20208;-60
2023/02/16 11:44:31;;;;;;;9.45;4.68;;;;;;;23.69;29.12;97516.81;2064754;28;20639;-60
2023/02/16 11:45:35;;;;;;;14.23;4.97;;;;;;;23.15;29.52;97522.16;2063337;28;20199;-60
2023/02/16 11:46:39;;;;;;;6.45;4.40;;;;;;;22.91;29.76;97509.00;2062960;28;20230;-60
2023/02/16 11:47:41;;;;;;;11.00;5.55;;;;;;;22.54;30.24;97517.28;2061556;28;20206;-60
2023/02/16 11:48:44;;;;;;;14.00;5.55;;;;;;;22.90;29.87;97507.28;2064632;28;20214;-60
2023/02/16 11:49:45;;;;;;;8.23;4.47;;;;;;;22.81;29.97;97513.38;2061590;28;20225;-61
2023/02/16 11:50:55;;;;;;;11.35;6.20;;;;;;;22.59;30.44;97512.44;2062068;28;20200;-60
2023/02/16 11:51:58;;;;;;;11.00;5.32;;;;;;;22.33;31.55;97506.50;2060844;28;20209;-60
2023/02/16 11:53:08;;;;;;;7.07;4.68;;;;;;;22.88;31.22;97503.94;2060247;28;20212;-60
2023/02/16 11:54:16;;;;;;;7.60;4.72;;;;;;;21.41;31.81;97501.13;2066213;28;20249;-60
2023/02/16 11:55:25;;;;;;;11.98;4.97;;;;;;;22.45;31.50;97510.06;2072876;28;20201;-60
2023/02/16 11:56:30;;;;;;;7.47;4.72;;;;;;;22.80;30.94;97506.34;2069285;28;20257;-60
2023/02/16 11:57:34;;;;;;;7.57;4.95;;;;;;;23.25;31.55;97510.72;2063285;28;20239;-61
2023/02/16 11:58:36;;;;;;;8.45;4.65;;;;;;;23.00;30.75;97494.09;2064630;28;20222;-60
2023/02/16 11:59:39;;;;;;;10.40;4.85;;;;;;;23.54;30.65;97502.97;2062911;28;20202;-60
2023/02/16 12:01:01;;;;;;;8.88;4.50;;;;;;;23.03;30.37;97463.69;2067392;28;20329;-60
2023/02/16 12:02:26;;;;;;;7.75;4.30;;;;;;;22.69;31.78;97495.72;2061599;28;20238;-60
2023/02/16 12:04:06;;;;;;;6.85;4.40;;;;;;;22.66;31.19;97496.81;2063156;28;20611;-61
2023/02/16 12:05:20;;;;;;;10.63;3.97;;;;;;;21.40;32.39;97491.47;2070723;28;20620;-60
2023/02/16 12:06:31;;;;;;;6.47;3.78;;;;;;;21.28;33.22;97499.41;2067260;28;20194;-60
2023/02/16 12:07:36;;;;;;;7.97;4.18;;;;;;;21.08;33.22;97492.06;2066215;28;20285;-60
2023/02/16 12:08:43;;;;;;;10.57;4.30;;;;;;;20.87;33.86;97500.66;2061126;28;20308;-60
2023/02/16 12:10:00;;;;;;;9.55;4.13;;;;;;;21.04;34.25;97499.44;2062226;28;20239;-60
2023/02/16 12:11:25;;;;;;;14.38;4.43;;;;;;;22.06;32.77;97481.13;2063112;28;20552;-60
2023/02/16 12:13:01;;;;;;;7.53;3.80;;;;;;;22.29;31.77;97492.59;2061635;28;20215;-60
2023/02/16 12:14:22;;;;;;;8.07;4.00;;;;;;;22.94;32.36;97490.13;2059564;28;20225;-60
2023/02/16 12:15:31;;;;;;;6.50;3.60;;;;;;;22.32;32.56;97481.72;2060909;28;20203;-60
2023/02/16 12:16:46;;;;;;;13.93;3.72;;;;;;;21.94;32.75;97477.63;2057793;28;20249;-61
2023/02/16 12:18:03;;;;;;;9.50;4.10;;;;;;;22.43;32.58;97482.72;2066196;28;20206;-61
2023/02/16 12:19:40;;;;;;;6.18;3.35;;;;;;;22.28;32.92;97477.63;2064916;28;20708;-60
2023/02/16 12:21:17;;;;;;;5.40;3.40;;;;;;;23.08;31.75;97475.63;2066195;28;20209;-62
2023/02/16 12:22:40;;;;;;;13.23;3.90;;;;;;;23.38;31.37;97482.09;2067643;28;20209;-60
2023/02/16 12:24:19;;;;;;;6.85;3.35;;;;;;;23.40;31.52;97471.31;2062905;28;20233;-60
2023/02/16 12:25:33;;;;;;;16.95;3.50;;;;;;;22.94;32.14;97481.28;2065813;28;20209;-60
2023/02/16 12:26:34;;;;;;;6.60;3.85;;;;;;;21.89;32.29;97469.16;2067290;28;20307;-60
2023/02/16 12:27:49;;;;;;;5.38;3.53;;;;;;;21.25;33.76;97467.75;2066252;28;20293;-60
2023/02/16 12:29:03;;;;;;;9.40;3.75;;;;;;;21.30;34.30;97462.09;2061667;28;20223;-60
2023/02/16 12:30:10;;;;;;;8.38;3.33;;;;;;;20.83;34.47;97465.53;2060527;28;20202;-60
2023/02/16 12:31:53;;;;;;;8.32;3.78;;;;;;;20.22;35.21;97460.16;2062596;28;20210;-60
2023/02/16 12:33:06;;;;;;;8.38;3.25;;;;;;;20.06;35.73;97460.41;2056221;28;20280;-60
2023/02/16 12:34:27;;;;;;;5.70;3.30;;;;;;;20.53;35.16;97460.63;2053611;28;20768;-60
2023/02/16 12:36:26;;;;;;;9.45;3.38;;;;;;;19.71;35.58;97453.94;2055224;28;20202;-60
2023/02/16 12:37:55;;;;;;;5.13;2.95;;;;;;;19.74;36.40;97450.22;2028437;29;20208;-60
2023/02/16 12:39:05;;;;;;;4.43;2.70;;;;;;;20.24;35.49;97450.31;2027033;29;20225;-60
2023/02/16 12:40:28;;;;;;;7.75;3.35;;;;;;;20.30;35.60;97449.88;2027264;29;20838;-60
2023/02/16 12:41:35;;;;;;;8.38;2.80;;;;;;;20.51;35.08;97447.47;2028117;29;20858;-60
2023/02/16 12:42:47;;;;;;;3.67;2.50;;;;;;;20.10;35.52;97443.34;2035094;28;20674;-60
2023/02/16 12:43:54;;;;;;;8.13;2.92;;;;;;;20.49;35.18;97457.38;2053380;28;20230;-60
2023/02/16 12:45:00;;;;;;;6.43;3.30;;;;;;;21.28;34.00;97451.59;2053767;28;20319;-60
2023/02/16 12:46:13;;;;;;;10.98;3.00;;;;;;;21.63;33.72;97440.09;2054068;28;20771;-60
2023/02/16 12:47:25;;;;;;;4.60;2.63;;;;;;;21.50;34.28;97440.19;2058227;28;20722;-60
2023/02/16 12:49:00;;;;;;;6.53;3.00;;;;;;;22.34;33.64;97441.69;2054632;28;20207;-60
2023/02/16 12:50:13;;;;;;;8.30;3.03;;;;;;;22.73;32.71;97443.94;2054503;28;20229;-60
2023/02/16 12:51:24;;;;;;;6.18;2.40;;;;;;;22.83;32.23;97437.75;2054167;28;20211;-60
2023/02/16 12:52:38;;;;;;;9.85;3.40;;;;;;;23.30;31.97;97441.94;2055380;28;20709;-60
2023/02/16 12:54:00;;;;;;;4.45;2.30;;;;;;;22.31;32.76;97437.47;2055783;28;20222;-60
2023/02/16 12:55:18;;;;;;;4.47;2.40;;;;;;;20.51;33.42;97433.38;2055303;28;20298;-58
2023/02/16 12:56:27;;;;;;;4.38;2.40;;;;;;;20.48;34.40;97430.91;2056885;28;20217;-57
2023/02/16 12:57:30;;;;;;;10.98;2.38;;;;;;;19.74;34.85;97437.84;2054565;28;20191;-57
2023/02/16 12:58:39;;;;;;;5.70;2.33;;;;;;;19.37;35.50;97431.56;2055352;28;20237;-60
2023/02/16 12:59:49;;;;;;;5.43;2.38;;;;;;;19.06;36.09;97426.53;2056453;28;20205;-60
2023/02/16 13:00:56;;;;;;;5.40;2.60;;;;;;;18.69;36.40;97421.00;2056857;28;20206;-60
2023/02/16 13:02:00;;;;;;;6.35;2.60;;;;;;;18.65;36.70;97427.44;2055706;28;20203;-60
2023/02/16 13:03:23;;;;;;;4.55;2.70;;;;;;;18.48;37.30;97427.69;2055782;28;20253;-60
2023/02/16 13:04:42;;;;;;;4.75;2.22;;;;;;;18.21;37.73;97424.06;2053902;28;20292;-57
2023/02/16 13:05:49;;;;;;;9.88;4.72;;;;;;;18.24;37.79;97426.50;2056977;28;20333;-59
2023/02/16 13:07:15;;;;;;;11.57;5.10;;;;;;;17.71;38.34;97426.25;2056853;28;20609;-59
2023/02/16 13:08:50;;;;;;;9.02;4.15;;;;;;;17.41;38.69;97419.22;2063736;28;20206;-59
2023/02/16 13:10:10;;;;;;;6.95;2.30;;;;;;;18.04;38.34;97425.13;2062041;28;20232;-59
2023/02/16 13:11:24;;;;;;;6.78;2.63;;;;;;;18.05;38.11;97413.59;2060034;28;20230;-59
2023/02/16 13:12:37;;;;;;;6.10;2.15;;;;;;;17.86;38.26;97413.84;2063773;28;20202;-60
2023/02/16 13:13:40;;;;;;;8.30;2.50;;;;;;;17.55;38.56;97415.75;2061389;28;20227;-60
2023/02/16 13:14:47;;;;;;;6.18;1.80;;;;;;;17.95;38.34;97421.25;2063235;28;20205;-60
2023/02/16 13:16:07;;;;;;;11.82;2.80;;;;;;;18.03;38.26;97399.66;2060485;28;20202;-60
2023/02/16 13:17:32;;;;;;;6.38;2.75;;;;;;;17.82;38.98;97406.25;2063860;28;20741;-59
2023/02/16 13:18:40;;;;;;;5.03;2.13;;;;;;;17.31;39.13;97404.88;2062592;28;20226;-60
2023/02/16 13:19:43;;;;;;;5.35;2.22;;;;;;;16.93;40.08;97416.75;2063594;28;20234;-59
2023/02/16 13:20:49;;;;;;;6.10;2.28;;;;;;;17.35;40.06;97413.47;2065701;28;20221;-61
2023/02/16 13:22:16;;;;;;;6.35;2.63;;;;;;;16.69;40.43;97412.88;2062933;28;20226;-60
2023/02/16 13:23:20;;;;;;;6.65;2.40;;;;;;;16.74;40.80;97424.84;2060903;28;20229;-59
2023/02/16 13:24:37;;;;;;;5.72;2.10;;;;;;;16.60;40.95;97423.00;2065950;28;20842;-60
2023/02/16 13:26:00;;;;;;;4.55;2.20;;;;;;;16.42;41.44;97413.50;2066947;28;20240;-60
2023/02/16 13:27:31;;;;;;;6.35;2.60;;;;;;;16.13;41.86;97415.97;2063650;28;20580;-59
2023/02/16 13:28:58;;;;;;;8.52;3.22;;;;;;;15.88;41.96;97419.09;2062624;28;20234;-59
2023/02/16 13:30:06;;;;;;;9.05;2.88;;;;;;;15.74;42.22;97419.78;2062558;28;21197;-59
2023/02/16 13:31:16;;;;;;;4.93;2.35;;;;;;;15.45;41.80;97414.28;2066605;28;20345;-59
2023/02/16 13:32:49;;;;;;;5.50;2.47;;;;;;;15.42;42.15;97415.28;2066971;28;20198;-59
2023/02/16 13:34:12;;;;;;;4.93;2.50;;;;;;;15.30;42.75;97416.78;2065930;28;20697;-59
2023/02/16 13:35:40;;;;;;;6.88;2.22;;;;;;;15.49;42.37;97407.91;2064425;28;20198;-59
2023/02/16 13:37:03;;;;;;;7.10;3.08;;;;;;;15.63;42.33;97420.34;2064724;28;20203;-59
2023/02/16 13:38:32;;;;;;;6.10;2.72;;;;;;;15.95;41.88;97415.19;2067269;28;20229;-59
2023/02/16 13:39:45;;;;;;;11.60;2.60;;;;;;;16.07;41.35;97413.66;2067522;28;20217;-59
2023/02/16 13:41:11;;;;;;;4.95;2.38;;;;;;;16.27;41.01;97410.78;2063602;28;20183;-59
2023/02/16 13:42:40;;;;;;;12.20;2.40;;;;;;;16.32;41.00;97413.16;2064303;28;20238;-61
2023/02/16 13:43:58;;;;;;;8.20;2.67;;;;;;;15.91;41.27;97413.63;2064138;28;20661;-61
2023/02/16 13:45:11;;;;;;;9.00;2.30;;;;;;;15.91;41.64;97416.28;2065465;28;20228;-61
2023/02/16 13:46:26;;;;;;;6.63;2.75;;;;;;;15.92;41.91;97424.13;2067016;28;20285;-61
2023/02/16 13:47:38;;;;;;;3.15;1.90;;;;;;;15.34;42.00;97413.06;2065617;28;20192;-62
2023/02/16 13:48:48;;;;;;;5.40;2.70;;;;;;;15.04;43.29;97417.25;2062646;28;20878;-61
2023/02/16 13:49:57;;;;;;;9.10;2.50;;;;;;;14.88;43.00;97404.03;2064649;28;20202;-61
2023/02/16 13:51:02;;;;;;;7.57;2.75;;;;;;;15.04;43.46;97420.72;2063734;28;20651;-61
2023/02/16 13:52:07;;;;;;;3.63;2.08;;;;;;;14.81;43.23;97416.63;2065690;28;20697;-61
2023/02/16 13:53:17;;;;;;;4.57;2.10;;;;;;;14.79;43.17;97418.47;2067386;28;20260;-61
2023/02/16 13:54:40;;;;;;;3.67;1.95;;;;;;;14.54;43.61;97417.03;2064645;28;20217;-61
2023/02/16 13:55:42;;;;;;;8.95;2.38;;;;;;;14.46;44.13;97421.78;2065842;28;20206;-60
2023/02/16 13:56:44;;;;;;;6.70;2.22;;;;;;;14.23;44.38;97423.72;2065300;28;20214;-61
2023/02/16 13:57:45;;;;;;;5.72;2.20;;;;;;;14.05;44.10;97428.06;2067169;28;20229;-61
2023/02/16 13:58:52;;;;;;;9.25;2.25;;;;;;;13.96;44.20;97423.25;2062255;28;20356;-61
2023/02/16 14:00:04;;;;;;;8.57;2.20;;;;;;;14.23;44.03;97423.72;2061774;28;20195;-61
2023/02/16 14:01:32;;;;;;;7.10;2.47;;;;;;;14.40;43.59;97428.19;2062981;28;20207;-61
2023/02/16 14:02:51;;;;;;;7.30;3.08;;;;;;;14.36;43.93;97430.13;2064750;28;20202;-61
2023/02/16 14:03:53;;;;;;;4.45;2.30;;;;;;;14.10;44.72;97420.81;2066054;28;20225;-61
2023/02/16 14:04:54;;;;;;;6.70;2.40;;;;;;;14.04;44.50;97427.22;2064460;28;20431;-61
2023/02/16 14:06:25;;;;;;;4.30;2.40;;;;;;;13.98;44.42;97427.50;2064314;28;20249;-61